sensor_id;sensor_type;location;lat;lon;timestamp;temperature;humidity
16229;DHT22;8222;51.462;12.630;2023-07-24T00:00:21;23.70;99.90
16229;DHT22;8222;51.462;12.630;2023-07-24T00:02:49;23.70;99.90
16229;DHT22;8222;51.462;12.630;2023-07-24T00:05:15;23.80;99.90
16229;DHT22;8222;51.462;12.630;2023-07-24T00:07:42;23.80;99.90
16229;DHT22;8222;51.462;12.630;2023-07-24T00:10:07;23.70;99.90
16229;DHT22;8222;51.462;12.630;2023-07-24T00:12:35;23.60;99.90
16229;DHT22;8222;51.462;12.630;2023-07-24T00:15:04;23.50;99.90
16229;DHT22;8222;51.462;12.630;2023-07-24T00:17:30;23.60;99.90
16229;DHT22;8222;51.462;12.630;2023-07-24T00:19:56;23.60;99.90
16229;DHT22;8222;51.462;12.630;2023-07-24T00:22:21;23.50;99.90
16229;DHT22;8222;51.462;12.630;2023-07-24T00:24:49;23.50;99.90
16229;DHT22;8222;51.462;12.630;2023-07-24T00:27:15;23.30;99.90
16229;DHT22;8222;51.462;12.630;2023-07-24T00:29:43;23.20;99.90
16229;DHT22;8222;51.462;12.630;2023-07-24T00:32:09;23.20;99.90
16229;DHT22;8222;51.462;12.630;2023-07-24T00:34:34;23.10;99.90
16229;DHT22;8222;51.462;12.630;2023-07-24T00:37:00;23.20;99.90
16229;DHT22;8222;51.462;12.630;2023-07-24T00:39:26;23.30;99.90
16229;DHT22;8222;51.462;12.630;2023-07-24T00:41:54;23.30;99.90
16229;DHT22;8222;51.462;12.630;2023-07-24T00:44:19;23.30;99.90
16229;DHT22;8222;51.462;12.630;2023-07-24T00:46:45;23.20;99.90
16229;DHT22;8222;51.462;12.630;2023-07-24T00:49:12;23.10;99.90
16229;DHT22;8222;51.462;12.630;2023-07-24T00:51:38;23.10;99.90
16229;DHT22;8222;51.462;12.630;2023-07-24T00:54:07;23.10;99.90
16229;DHT22;8222;51.462;12.630;2023-07-24T00:56:32;23.10;99.90
16229;DHT22;8222;51.462;12.630;2023-07-24T00:59:00;22.90;99.90
16229;DHT22;8222;51.462;12.630;2023-07-24T01:04:05;22.50;99.90
16229;DHT22;8222;51.462;12.630;2023-07-24T01:06:31;22.70;99.90
16229;DHT22;8222;51.462;12.630;2023-07-24T01:08:57;22.80;99.90
16229;DHT22;8222;51.462;12.630;2023-07-24T01:11:37;22.70;99.90
16229;DHT22;8222;51.462;12.630;2023-07-24T01:16:48;22.60;99.90
16229;DHT22;8222;51.462;12.630;2023-07-24T01:19:36;22.50;99.90
16229;DHT22;8222;51.462;12.630;2023-07-24T01:27:26;22.50;99.90
16229;DHT22;8222;51.462;12.630;2023-07-24T01:29:55;22.40;99.90
16229;DHT22;8222;51.462;12.630;2023-07-24T01:32:21;22.50;99.90
16229;DHT22;8222;51.462;12.630;2023-07-24T01:34:55;22.60;99.90
16229;DHT22;8222;51.462;12.630;2023-07-24T01:37:25;22.50;99.90
16229;DHT22;8222;51.462;12.630;2023-07-24T01:39:56;22.40;99.90
16229;DHT22;8222;51.462;12.630;2023-07-24T01:42:27;22.40;99.90
16229;DHT22;8222;51.462;12.630;2023-07-24T01:44:54;22.30;99.90
16229;DHT22;8222;51.462;12.630;2023-07-24T01:47:21;22.30;99.90
16229;DHT22;8222;51.462;12.630;2023-07-24T01:49:49;22.40;99.90
16229;DHT22;8222;51.462;12.630;2023-07-24T01:52:17;22.50;99.90
16229;DHT22;8222;51.462;12.630;2023-07-24T01:54:45;22.40;99.90
16229;DHT22;8222;51.462;12.630;2023-07-24T01:57:11;22.30;99.90
16229;DHT22;8222;51.462;12.630;2023-07-24T01:59:36;22.40;99.90
16229;DHT22;8222;51.462;12.630;2023-07-24T02:02:07;22.50;99.90
16229;DHT22;8222;51.462;12.630;2023-07-24T02:04:32;22.50;99.90
16229;DHT22;8222;51.462;12.630;2023-07-24T02:06:58;22.40;99.90
16229;DHT22;8222;51.462;12.630;2023-07-24T02:09:24;22.40;99.90
16229;DHT22;8222;51.462;12.630;2023-07-24T02:11:49;22.40;99.90
16229;DHT22;8222;51.462;12.630;2023-07-24T02:14:17;22.50;99.90
16229;DHT22;8222;51.462;12.630;2023-07-24T02:16:53;22.40;99.90
16229;DHT22;8222;51.462;12.630;2023-07-24T02:19:18;22.30;99.90
16229;DHT22;8222;51.462;12.630;2023-07-24T02:21:44;22.20;99.90
16229;DHT22;8222;51.462;12.630;2023-07-24T02:24:09;22.20;99.90
16229;DHT22;8222;51.462;12.630;2023-07-24T02:26:38;22.10;99.90
16229;DHT22;8222;51.462;12.630;2023-07-24T02:29:04;22.20;99.90
16229;DHT22;8222;51.462;12.630;2023-07-24T02:31:29;22.20;99.90
16229;DHT22;8222;51.462;12.630;2023-07-24T02:33:59;22.10;99.90
16229;DHT22;8222;51.462;12.630;2023-07-24T02:36:27;22.00;99.90
16229;DHT22;8222;51.462;12.630;2023-07-24T02:38:53;22.00;99.90
16229;DHT22;8222;51.462;12.630;2023-07-24T02:41:23;22.00;99.90
16229;DHT22;8222;51.462;12.630;2023-07-24T02:43:48;22.10;99.90
16229;DHT22;8222;51.462;12.630;2023-07-24T02:46:16;22.10;99.90
16229;DHT22;8222;51.462;12.630;2023-07-24T02:48:42;22.10;99.90
16229;DHT22;8222;51.462;12.630;2023-07-24T02:51:08;22.00;99.90
16229;DHT22;8222;51.462;12.630;2023-07-24T02:53:33;22.00;99.90
16229;DHT22;8222;51.462;12.630;2023-07-24T02:56:02;21.80;99.90
16229;DHT22;8222;51.462;12.630;2023-07-24T02:58:28;21.70;99.90
16229;DHT22;8222;51.462;12.630;2023-07-24T03:00:53;21.70;99.90
16229;DHT22;8222;51.462;12.630;2023-07-24T03:03:22;21.80;99.90
16229;DHT22;8222;51.462;12.630;2023-07-24T03:05:50;21.70;99.90
16229;DHT22;8222;51.462;12.630;2023-07-24T03:08:15;21.70;99.90
16229;DHT22;8222;51.462;12.630;2023-07-24T03:10:43;21.70;99.90
16229;DHT22;8222;51.462;12.630;2023-07-24T03:13:09;21.80;99.90
16229;DHT22;8222;51.462;12.630;2023-07-24T03:15:35;21.70;99.90
16229;DHT22;8222;51.462;12.630;2023-07-24T03:18:05;21.80;99.90
16229;DHT22;8222;51.462;12.630;2023-07-24T03:20:31;21.90;99.90
16229;DHT22;8222;51.462;12.630;2023-07-24T03:22:59;21.90;99.90
16229;DHT22;8222;51.462;12.630;2023-07-24T03:25:24;21.70;99.90
16229;DHT22;8222;51.462;12.630;2023-07-24T03:27:50;21.60;99.90
16229;DHT22;8222;51.462;12.630;2023-07-24T03:30:16;21.40;99.90
16229;DHT22;8222;51.462;12.630;2023-07-24T03:32:42;21.30;99.90
16229;DHT22;8222;51.462;12.630;2023-07-24T03:35:10;21.20;99.90
16229;DHT22;8222;51.462;12.630;2023-07-24T03:37:35;21.20;99.90
16229;DHT22;8222;51.462;12.630;2023-07-24T03:40:01;21.20;99.90
16229;DHT22;8222;51.462;12.630;2023-07-24T03:42:30;21.20;99.90
16229;DHT22;8222;51.462;12.630;2023-07-24T03:45:01;21.30;99.90
16229;DHT22;8222;51.462;12.630;2023-07-24T03:47:30;21.30;99.90
16229;DHT22;8222;51.462;12.630;2023-07-24T03:49:58;21.20;99.90
16229;DHT22;8222;51.462;12.630;2023-07-24T03:52:28;21.20;99.90
16229;DHT22;8222;51.462;12.630;2023-07-24T03:54:56;21.20;99.90
16229;DHT22;8222;51.462;12.630;2023-07-24T03:57:21;21.40;99.90
16229;DHT22;8222;51.462;12.630;2023-07-24T03:59:49;21.70;99.90
16229;DHT22;8222;51.462;12.630;2023-07-24T04:02:18;21.90;99.90
16229;DHT22;8222;51.462;12.630;2023-07-24T04:04:48;22.00;99.90
16229;DHT22;8222;51.462;12.630;2023-07-24T04:07:16;22.00;99.90
16229;DHT22;8222;51.462;12.630;2023-07-24T04:09:47;22.00;99.90
16229;DHT22;8222;51.462;12.630;2023-07-24T04:12:14;22.20;99.90
16229;DHT22;8222;51.462;12.630;2023-07-24T04:14:40;22.20;99.90
16229;DHT22;8222;51.462;12.630;2023-07-24T04:17:06;22.20;99.90
16229;DHT22;8222;51.462;12.630;2023-07-24T04:19:34;22.20;99.90
16229;DHT22;8222;51.462;12.630;2023-07-24T04:22:04;22.30;99.90
16229;DHT22;8222;51.462;12.630;2023-07-24T04:24:34;22.40;99.90
16229;DHT22;8222;51.462;12.630;2023-07-24T04:27:02;22.40;99.90
16229;DHT22;8222;51.462;12.630;2023-07-24T04:29:28;22.60;99.90
16229;DHT22;8222;51.462;12.630;2023-07-24T04:31:56;22.80;99.90
16229;DHT22;8222;51.462;12.630;2023-07-24T04:34:21;23.10;99.90
16229;DHT22;8222;51.462;12.630;2023-07-24T04:36:49;23.10;99.90
16229;DHT22;8222;51.462;12.630;2023-07-24T04:39:15;23.10;99.90
16229;DHT22;8222;51.462;12.630;2023-07-24T04:41:41;23.10;99.90
16229;DHT22;8222;51.462;12.630;2023-07-24T04:44:09;23.30;99.90
16229;DHT22;8222;51.462;12.630;2023-07-24T04:46:36;23.40;99.90
16229;DHT22;8222;51.462;12.630;2023-07-24T04:49:07;23.50;99.90
16229;DHT22;8222;51.462;12.630;2023-07-24T04:51:33;23.70;99.90
16229;DHT22;8222;51.462;12.630;2023-07-24T04:53:59;23.70;99.90
16229;DHT22;8222;51.462;12.630;2023-07-24T04:56:24;23.60;99.90
16229;DHT22;8222;51.462;12.630;2023-07-24T04:58:50;23.60;99.90
16229;DHT22;8222;51.462;12.630;2023-07-24T05:01:18;23.60;99.90
16229;DHT22;8222;51.462;12.630;2023-07-24T05:03:44;23.60;99.90
16229;DHT22;8222;51.462;12.630;2023-07-24T05:06:12;23.80;99.90
16229;DHT22;8222;51.462;12.630;2023-07-24T05:08:37;23.80;99.90
16229;DHT22;8222;51.462;12.630;2023-07-24T05:11:05;23.70;99.90
16229;DHT22;8222;51.462;12.630;2023-07-24T05:13:31;23.70;99.90
16229;DHT22;8222;51.462;12.630;2023-07-24T05:15:57;23.70;99.90
16229;DHT22;8222;51.462;12.630;2023-07-24T05:18:22;23.60;99.90
16229;DHT22;8222;51.462;12.630;2023-07-24T05:20:49;23.60;99.90
16229;DHT22;8222;51.462;12.630;2023-07-24T05:23:16;23.70;99.90
16229;DHT22;8222;51.462;12.630;2023-07-24T05:25:45;23.80;99.90
16229;DHT22;8222;51.462;12.630;2023-07-24T05:28:12;23.90;99.90
16229;DHT22;8222;51.462;12.630;2023-07-24T05:30:41;24.00;99.90
16229;DHT22;8222;51.462;12.630;2023-07-24T05:33:06;24.00;99.90
16229;DHT22;8222;51.462;12.630;2023-07-24T05:35:32;24.10;99.90
16229;DHT22;8222;51.462;12.630;2023-07-24T05:38:02;24.10;99.90
16229;DHT22;8222;51.462;12.630;2023-07-24T05:40:28;24.20;99.90
16229;DHT22;8222;51.462;12.630;2023-07-24T05:42:56;24.30;99.90
16229;DHT22;8222;51.462;12.630;2023-07-24T05:45:24;24.40;99.90
16229;DHT22;8222;51.462;12.630;2023-07-24T05:47:52;24.30;99.90
16229;DHT22;8222;51.462;12.630;2023-07-24T05:50:18;24.40;99.90
16229;DHT22;8222;51.462;12.630;2023-07-24T05:52:45;24.30;99.90
16229;DHT22;8222;51.462;12.630;2023-07-24T05:55:11;24.40;99.90
16229;DHT22;8222;51.462;12.630;2023-07-24T05:57:37;24.40;99.90
16229;DHT22;8222;51.462;12.630;2023-07-24T06:00:04;24.30;99.90
16229;DHT22;8222;51.462;12.630;2023-07-24T06:02:30;24.20;99.90
16229;DHT22;8222;51.462;12.630;2023-07-24T06:04:58;24.10;99.90
16229;DHT22;8222;51.462;12.630;2023-07-24T06:07:26;24.00;99.90
16229;DHT22;8222;51.462;12.630;2023-07-24T06:09:54;24.10;99.90
16229;DHT22;8222;51.462;12.630;2023-07-24T06:12:22;24.00;99.90
16229;DHT22;8222;51.462;12.630;2023-07-24T06:14:52;24.00;99.90
16229;DHT22;8222;51.462;12.630;2023-07-24T06:17:18;24.00;99.90
16229;DHT22;8222;51.462;12.630;2023-07-24T06:19:46;24.30;99.90
16229;DHT22;8222;51.462;12.630;2023-07-24T06:22:12;24.50;99.90
16229;DHT22;8222;51.462;12.630;2023-07-24T06:24:37;24.70;99.90
16229;DHT22;8222;51.462;12.630;2023-07-24T06:27:04;24.90;99.90
16229;DHT22;8222;51.462;12.630;2023-07-24T06:29:34;25.00;99.90
16229;DHT22;8222;51.462;12.630;2023-07-24T06:32:02;25.00;99.90
16229;DHT22;8222;51.462;12.630;2023-07-24T06:34:28;25.00;99.90
16229;DHT22;8222;51.462;12.630;2023-07-24T06:36:54;25.10;99.90
16229;DHT22;8222;51.462;12.630;2023-07-24T06:39:20;25.10;99.90
16229;DHT22;8222;51.462;12.630;2023-07-24T06:41:51;25.20;99.90
16229;DHT22;8222;51.462;12.630;2023-07-24T06:44:17;25.20;99.90
16229;DHT22;8222;51.462;12.630;2023-07-24T06:46:45;25.40;99.90
16229;DHT22;8222;51.462;12.630;2023-07-24T06:49:11;25.60;99.90
16229;DHT22;8222;51.462;12.630;2023-07-24T06:51:37;25.80;99.90
16229;DHT22;8222;51.462;12.630;2023-07-24T06:54:04;26.00;99.90
16229;DHT22;8222;51.462;12.630;2023-07-24T06:56:32;26.20;99.90
16229;DHT22;8222;51.462;12.630;2023-07-24T06:59:00;26.20;99.90
16229;DHT22;8222;51.462;12.630;2023-07-24T07:01:28;26.30;99.90
16229;DHT22;8222;51.462;12.630;2023-07-24T07:03:54;26.40;99.90
16229;DHT22;8222;51.462;12.630;2023-07-24T07:06:19;26.50;99.90
16229;DHT22;8222;51.462;12.630;2023-07-24T07:08:45;26.50;99.90
16229;DHT22;8222;51.462;12.630;2023-07-24T07:11:11;26.70;99.90
16229;DHT22;8222;51.462;12.630;2023-07-24T07:13:37;26.80;99.90
16229;DHT22;8222;51.462;12.630;2023-07-24T07:16:04;26.90;99.90
16229;DHT22;8222;51.462;12.630;2023-07-24T07:18:33;27.30;98.30
16229;DHT22;8222;51.462;12.630;2023-07-24T07:21:01;27.40;96.10
16229;DHT22;8222;51.462;12.630;2023-07-24T07:23:29;27.40;94.90
16229;DHT22;8222;51.462;12.630;2023-07-24T07:25:55;27.50;96.20
16229;DHT22;8222;51.462;12.630;2023-07-24T07:28:20;27.60;95.90
16229;DHT22;8222;51.462;12.630;2023-07-24T07:30:48;27.60;94.20
16229;DHT22;8222;51.462;12.630;2023-07-24T07:33:14;27.40;94.60
16229;DHT22;8222;51.462;12.630;2023-07-24T07:35:42;27.30;94.30
16229;DHT22;8222;51.462;12.630;2023-07-24T07:38:11;27.20;94.70
16229;DHT22;8222;51.462;12.630;2023-07-24T07:40:37;27.10;95.10
16229;DHT22;8222;51.462;12.630;2023-07-24T07:43:04;27.10;94.30
16229;DHT22;8222;51.462;12.630;2023-07-24T07:45:32;27.20;94.40
16229;DHT22;8222;51.462;12.630;2023-07-24T07:48:00;27.40;94.30
16229;DHT22;8222;51.462;12.630;2023-07-24T07:50:26;27.60;94.20
16229;DHT22;8222;51.462;12.630;2023-07-24T07:52:52;27.70;93.00
16229;DHT22;8222;51.462;12.630;2023-07-24T07:55:20;27.70;92.00
16229;DHT22;8222;51.462;12.630;2023-07-24T07:57:46;27.90;92.10
16229;DHT22;8222;51.462;12.630;2023-07-24T08:00:14;28.20;92.80
16229;DHT22;8222;51.462;12.630;2023-07-24T08:02:42;28.40;90.50
16229;DHT22;8222;51.462;12.630;2023-07-24T08:05:09;28.50;90.80
16229;DHT22;8222;51.462;12.630;2023-07-24T08:07:35;28.60;89.40
16229;DHT22;8222;51.462;12.630;2023-07-24T08:10:04;28.60;88.60
16229;DHT22;8222;51.462;12.630;2023-07-24T08:12:32;28.60;89.10
16229;DHT22;8222;51.462;12.630;2023-07-24T08:14:57;28.50;86.90
16229;DHT22;8222;51.462;12.630;2023-07-24T08:17:23;28.50;87.70
16229;DHT22;8222;51.462;12.630;2023-07-24T08:19:49;28.60;86.30
16229;DHT22;8222;51.462;12.630;2023-07-24T08:22:14;28.60;86.70
16229;DHT22;8222;51.462;12.630;2023-07-24T08:24:40;28.50;86.70
16229;DHT22;8222;51.462;12.630;2023-07-24T08:27:06;28.60;87.10
16229;DHT22;8222;51.462;12.630;2023-07-24T08:29:31;28.80;88.30
16229;DHT22;8222;51.462;12.630;2023-07-24T08:31:58;29.00;86.40
16229;DHT22;8222;51.462;12.630;2023-07-24T08:34:24;29.00;85.90
16229;DHT22;8222;51.462;12.630;2023-07-24T08:36:50;29.00;84.50
16229;DHT22;8222;51.462;12.630;2023-07-24T08:39:18;29.20;82.40
16229;DHT22;8222;51.462;12.630;2023-07-24T08:41:46;29.30;84.60
16229;DHT22;8222;51.462;12.630;2023-07-24T08:44:11;29.30;82.40
16229;DHT22;8222;51.462;12.630;2023-07-24T08:46:42;29.40;82.30
16229;DHT22;8222;51.462;12.630;2023-07-24T08:49:14;29.50;82.60
16229;DHT22;8222;51.462;12.630;2023-07-24T08:51:44;29.50;83.20
16229;DHT22;8222;51.462;12.630;2023-07-24T08:54:12;29.40;81.10
16229;DHT22;8222;51.462;12.630;2023-07-24T08:56:38;29.30;81.60
16229;DHT22;8222;51.462;12.630;2023-07-24T08:59:07;29.30;82.30
16229;DHT22;8222;51.462;12.630;2023-07-24T09:01:32;29.40;82.20
16229;DHT22;8222;51.462;12.630;2023-07-24T09:03:58;29.50;81.70
16229;DHT22;8222;51.462;12.630;2023-07-24T09:06:26;29.50;79.00
16229;DHT22;8222;51.462;12.630;2023-07-24T09:08:56;29.40;81.10
16229;DHT22;8222;51.462;12.630;2023-07-24T09:11:27;29.70;79.60
16229;DHT22;8222;51.462;12.630;2023-07-24T09:13:52;29.60;77.30
16229;DHT22;8222;51.462;12.630;2023-07-24T09:16:25;29.50;78.00
16229;DHT22;8222;51.462;12.630;2023-07-24T09:18:52;29.50;78.90
16229;DHT22;8222;51.462;12.630;2023-07-24T09:21:31;29.80;79.00
16229;DHT22;8222;51.462;12.630;2023-07-24T09:23:57;30.00;80.10
16229;DHT22;8222;51.462;12.630;2023-07-24T09:26:23;30.20;78.90
16229;DHT22;8222;51.462;12.630;2023-07-24T09:28:55;30.00;77.80
16229;DHT22;8222;51.462;12.630;2023-07-24T09:31:20;30.00;78.60
16229;DHT22;8222;51.462;12.630;2023-07-24T09:33:46;30.10;78.00
16229;DHT22;8222;51.462;12.630;2023-07-24T09:36:12;30.30;77.30
16229;DHT22;8222;51.462;12.630;2023-07-24T09:38:43;30.30;76.60
16229;DHT22;8222;51.462;12.630;2023-07-24T09:41:09;30.30;76.40
16229;DHT22;8222;51.462;12.630;2023-07-24T09:43:37;30.50;75.70
16229;DHT22;8222;51.462;12.630;2023-07-24T09:46:06;30.70;75.80
16229;DHT22;8222;51.462;12.630;2023-07-24T09:48:32;30.90;74.20
16229;DHT22;8222;51.462;12.630;2023-07-24T09:50:59;30.90;73.60
16229;DHT22;8222;51.462;12.630;2023-07-24T09:53:33;31.00;72.40
16229;DHT22;8222;51.462;12.630;2023-07-24T09:56:08;30.90;72.40
16229;DHT22;8222;51.462;12.630;2023-07-24T09:58:36;30.80;72.80
16229;DHT22;8222;51.462;12.630;2023-07-24T10:01:06;30.50;73.30
16229;DHT22;8222;51.462;12.630;2023-07-24T10:03:40;30.60;74.70
16229;DHT22;8222;51.462;12.630;2023-07-24T10:06:08;30.50;73.50
16229;DHT22;8222;51.462;12.630;2023-07-24T10:08:36;30.20;73.30
16229;DHT22;8222;51.462;12.630;2023-07-24T10:11:04;29.90;73.80
16229;DHT22;8222;51.462;12.630;2023-07-24T10:13:31;29.80;74.60
16229;DHT22;8222;51.462;12.630;2023-07-24T10:15:59;29.70;74.90
16229;DHT22;8222;51.462;12.630;2023-07-24T10:18:29;29.60;74.20
16229;DHT22;8222;51.462;12.630;2023-07-24T10:21:18;29.40;74.40
16229;DHT22;8222;51.462;12.630;2023-07-24T10:23:45;29.40;75.00
16229;DHT22;8222;51.462;12.630;2023-07-24T10:26:16;29.60;74.40
16229;DHT22;8222;51.462;12.630;2023-07-24T10:28:42;29.90;74.70
16229;DHT22;8222;51.462;12.630;2023-07-24T10:31:22;30.30;75.00
16229;DHT22;8222;51.462;12.630;2023-07-24T10:33:52;30.70;75.00
16229;DHT22;8222;51.462;12.630;2023-07-24T10:36:21;31.00;72.40
16229;DHT22;8222;51.462;12.630;2023-07-24T10:38:53;31.30;72.60
16229;DHT22;8222;51.462;12.630;2023-07-24T10:41:19;31.60;71.90
16229;DHT22;8222;51.462;12.630;2023-07-24T10:43:58;31.80;72.40
16229;DHT22;8222;51.462;12.630;2023-07-24T10:46:41;31.80;72.00
16229;DHT22;8222;51.462;12.630;2023-07-24T10:49:11;31.90;71.50
16229;DHT22;8222;51.462;12.630;2023-07-24T10:51:36;32.30;71.10
16229;DHT22;8222;51.462;12.630;2023-07-24T10:54:05;32.60;68.80
16229;DHT22;8222;51.462;12.630;2023-07-24T10:56:32;32.60;69.50
16229;DHT22;8222;51.462;12.630;2023-07-24T10:59:04;32.40;68.40
16229;DHT22;8222;51.462;12.630;2023-07-24T11:01:37;32.50;69.90
16229;DHT22;8222;51.462;12.630;2023-07-24T11:04:05;32.50;69.70
16229;DHT22;8222;51.462;12.630;2023-07-24T11:06:33;32.60;68.70
16229;DHT22;8222;51.462;12.630;2023-07-24T11:08:59;32.60;70.20
16229;DHT22;8222;51.462;12.630;2023-07-24T11:11:32;32.60;70.30
16229;DHT22;8222;51.462;12.630;2023-07-24T11:13:58;32.40;69.80
16229;DHT22;8222;51.462;12.630;2023-07-24T11:16:27;32.50;69.10
16229;DHT22;8222;51.462;12.630;2023-07-24T11:18:56;32.50;70.50
16229;DHT22;8222;51.462;12.630;2023-07-24T11:21:23;32.40;70.00
16229;DHT22;8222;51.462;12.630;2023-07-24T11:23:55;32.30;71.10
16229;DHT22;8222;51.462;12.630;2023-07-24T11:26:25;32.20;69.70
16229;DHT22;8222;51.462;12.630;2023-07-24T11:28:54;32.00;72.10
16229;DHT22;8222;51.462;12.630;2023-07-24T11:31:22;31.80;72.00
16229;DHT22;8222;51.462;12.630;2023-07-24T11:33:52;31.60;71.00
16229;DHT22;8222;51.462;12.630;2023-07-24T11:36:20;31.60;71.00
16229;DHT22;8222;51.462;12.630;2023-07-24T11:38:49;31.30;70.30
16229;DHT22;8222;51.462;12.630;2023-07-24T11:41:16;31.10;72.20
16229;DHT22;8222;51.462;12.630;2023-07-24T11:43:47;30.90;71.80
16229;DHT22;8222;51.462;12.630;2023-07-24T11:46:25;30.90;72.60
16229;DHT22;8222;51.462;12.630;2023-07-24T11:48:53;30.80;71.80
16229;DHT22;8222;51.462;12.630;2023-07-24T11:51:22;30.70;73.20
16229;DHT22;8222;51.462;12.630;2023-07-24T11:53:51;30.60;73.60
16229;DHT22;8222;51.462;12.630;2023-07-24T11:56:22;30.90;72.90
16229;DHT22;8222;51.462;12.630;2023-07-24T11:58:48;30.90;72.40
16229;DHT22;8222;51.462;12.630;2023-07-24T12:01:14;31.00;71.70
16229;DHT22;8222;51.462;12.630;2023-07-24T12:03:40;31.10;72.20
16229;DHT22;8222;51.462;12.630;2023-07-24T12:06:14;31.40;73.00
16229;DHT22;8222;51.462;12.630;2023-07-24T12:08:41;31.50;71.30
16229;DHT22;8222;51.462;12.630;2023-07-24T12:11:18;31.60;71.20
16229;DHT22;8222;51.462;12.630;2023-07-24T12:13:46;31.50;70.70
16229;DHT22;8222;51.462;12.630;2023-07-24T12:16:14;31.60;71.80
16229;DHT22;8222;51.462;12.630;2023-07-24T12:18:40;31.90;70.90
16229;DHT22;8222;51.462;12.630;2023-07-24T12:21:05;32.00;70.80
16229;DHT22;8222;51.462;12.630;2023-07-24T12:23:31;32.00;70.50
16229;DHT22;8222;51.462;12.630;2023-07-24T12:25:57;32.10;69.50
16229;DHT22;8222;51.462;12.630;2023-07-24T12:28:22;32.10;67.60
16229;DHT22;8222;51.462;12.630;2023-07-24T12:30:48;32.40;69.60
16229;DHT22;8222;51.462;12.630;2023-07-24T12:33:14;32.50;68.30
16229;DHT22;8222;51.462;12.630;2023-07-24T12:35:40;32.50;67.30
16229;DHT22;8222;51.462;12.630;2023-07-24T12:38:08;32.80;66.10
16229;DHT22;8222;51.462;12.630;2023-07-24T12:40:33;32.60;66.00
16229;DHT22;8222;51.462;12.630;2023-07-24T12:42:59;32.20;67.10
16229;DHT22;8222;51.462;12.630;2023-07-24T12:45:27;31.90;69.30
16229;DHT22;8222;51.462;12.630;2023-07-24T12:48:00;31.80;69.40
16229;DHT22;8222;51.462;12.630;2023-07-24T12:50:26;31.70;67.60
16229;DHT22;8222;51.462;12.630;2023-07-24T12:52:51;31.60;67.90
16229;DHT22;8222;51.462;12.630;2023-07-24T12:55:17;31.50;68.80
16229;DHT22;8222;51.462;12.630;2023-07-24T12:57:43;31.80;68.30
16229;DHT22;8222;51.462;12.630;2023-07-24T13:00:10;31.70;67.60
16229;DHT22;8222;51.462;12.630;2023-07-24T13:02:38;31.60;67.60
16229;DHT22;8222;51.462;12.630;2023-07-24T13:05:04;31.50;67.90
16229;DHT22;8222;51.462;12.630;2023-07-24T13:07:30;31.30;66.50
16229;DHT22;8222;51.462;12.630;2023-07-24T13:09:58;31.00;67.70
16229;DHT22;8222;51.462;12.630;2023-07-24T13:12:24;30.80;67.70
16229;DHT22;8222;51.462;12.630;2023-07-24T13:14:49;30.50;68.30
16229;DHT22;8222;51.462;12.630;2023-07-24T13:17:17;30.20;68.10
16229;DHT22;8222;51.462;12.630;2023-07-24T13:19:43;29.90;69.00
16229;DHT22;8222;51.462;12.630;2023-07-24T13:22:09;29.80;69.90
16229;DHT22;8222;51.462;12.630;2023-07-24T13:24:41;29.80;70.80
16229;DHT22;8222;51.462;12.630;2023-07-24T13:27:06;29.80;71.30
16229;DHT22;8222;51.462;12.630;2023-07-24T13:29:32;29.80;71.20
16229;DHT22;8222;51.462;12.630;2023-07-24T13:31:58;29.80;70.70
16229;DHT22;8222;51.462;12.630;2023-07-24T13:34:24;29.80;71.40
16229;DHT22;8222;51.462;12.630;2023-07-24T13:36:50;29.90;71.80
16229;DHT22;8222;51.462;12.630;2023-07-24T13:39:16;29.90;73.70
16229;DHT22;8222;51.462;12.630;2023-07-24T13:41:43;29.90;76.60
16229;DHT22;8222;51.462;12.630;2023-07-24T13:44:10;29.70;78.10
16229;DHT22;8222;51.462;12.630;2023-07-24T13:46:40;29.60;79.60
16229;DHT22;8222;51.462;12.630;2023-07-24T13:49:08;29.40;83.90
16229;DHT22;8222;51.462;12.630;2023-07-24T13:51:34;29.30;91.60
16229;DHT22;8222;51.462;12.630;2023-07-24T13:53:59;29.20;91.90
16229;DHT22;8222;51.462;12.630;2023-07-24T13:56:27;29.10;97.10
16229;DHT22;8222;51.462;12.630;2023-07-24T13:58:59;29.10;97.90
16229;DHT22;8222;51.462;12.630;2023-07-24T14:01:25;29.30;98.50
16229;DHT22;8222;51.462;12.630;2023-07-24T14:03:53;29.50;97.20
16229;DHT22;8222;51.462;12.630;2023-07-24T14:06:18;29.60;94.00
16229;DHT22;8222;51.462;12.630;2023-07-24T14:08:44;29.50;94.20
16229;DHT22;8222;51.462;12.630;2023-07-24T14:11:09;29.40;94.10
16229;DHT22;8222;51.462;12.630;2023-07-24T14:13:35;29.30;93.90
16229;DHT22;8222;51.462;12.630;2023-07-24T14:16:01;29.10;94.60
16229;DHT22;8222;51.462;12.630;2023-07-24T14:18:29;29.00;93.80
16229;DHT22;8222;51.462;12.630;2023-07-24T14:20:54;29.00;94.90
16229;DHT22;8222;51.462;12.630;2023-07-24T14:23:22;29.00;95.00
16229;DHT22;8222;51.462;12.630;2023-07-24T14:25:48;28.90;95.50
16229;DHT22;8222;51.462;12.630;2023-07-24T14:28:15;28.90;95.30
16229;DHT22;8222;51.462;12.630;2023-07-24T14:30:46;29.00;96.00
16229;DHT22;8222;51.462;12.630;2023-07-24T14:33:12;28.90;95.20
16229;DHT22;8222;51.462;12.630;2023-07-24T14:35:38;29.00;95.60
16229;DHT22;8222;51.462;12.630;2023-07-24T14:38:08;28.90;95.40
16229;DHT22;8222;51.462;12.630;2023-07-24T14:40:34;28.80;95.40
16229;DHT22;8222;51.462;12.630;2023-07-24T14:43:05;28.80;96.00
16229;DHT22;8222;51.462;12.630;2023-07-24T14:45:33;28.90;95.50
16229;DHT22;8222;51.462;12.630;2023-07-24T14:48:06;29.00;96.10
16229;DHT22;8222;51.462;12.630;2023-07-24T14:50:37;29.10;95.20
16229;DHT22;8222;51.462;12.630;2023-07-24T14:53:05;29.10;94.90
16229;DHT22;8222;51.462;12.630;2023-07-24T14:55:31;29.40;94.60
16229;DHT22;8222;51.462;12.630;2023-07-24T14:57:57;29.50;92.90
16229;DHT22;8222;51.462;12.630;2023-07-24T15:00:25;29.70;91.20
16229;DHT22;8222;51.462;12.630;2023-07-24T15:02:50;29.90;91.50
16229;DHT22;8222;51.462;12.630;2023-07-24T15:05:21;30.30;91.50
16229;DHT22;8222;51.462;12.630;2023-07-24T15:07:49;30.40;91.60
16229;DHT22;8222;51.462;12.630;2023-07-24T15:10:17;30.80;88.30
16229;DHT22;8222;51.462;12.630;2023-07-24T15:12:43;31.00;87.60
16229;DHT22;8222;51.462;12.630;2023-07-24T15:15:11;31.20;85.20
16229;DHT22;8222;51.462;12.630;2023-07-24T15:17:39;31.20;84.90
16229;DHT22;8222;51.462;12.630;2023-07-24T15:20:08;31.10;82.40
16229;DHT22;8222;51.462;12.630;2023-07-24T15:22:36;30.80;82.70
16229;DHT22;8222;51.462;12.630;2023-07-24T15:25:04;30.60;83.60
16229;DHT22;8222;51.462;12.630;2023-07-24T15:27:32;30.60;82.80
16229;DHT22;8222;51.462;12.630;2023-07-24T15:29:58;30.60;82.80
16229;DHT22;8222;51.462;12.630;2023-07-24T15:32:29;30.40;82.70
16229;DHT22;8222;51.462;12.630;2023-07-24T15:34:57;30.30;84.20
16229;DHT22;8222;51.462;12.630;2023-07-24T15:37:25;30.40;83.90
16229;DHT22;8222;51.462;12.630;2023-07-24T15:39:51;30.10;83.00
16229;DHT22;8222;51.462;12.630;2023-07-24T15:42:16;29.90;83.80